Latest Coastal Weather Observations for Ngayawili (Elcho Island)

IDD60701

Issued at 10:51 pm CST Sunday 24 May 2015 (issued every 10 minutes, with the page automatically refreshed every 10 minutes)

About coastal observations | Map of coastal stations | Coastal observations for NT | Marine services | Other Formats
Station Details ID: 014517 Name: NGAYAWILI Lat: -12.00 Lon: 135.57 Height: 8.1 m
Data from the previous 72 hours. | See also: Recent months at Ngayawili (Elcho Island)
Date/Time
CST
Temp

°C
Wind Pressure Rain
since 9am
mm
Weather Cloud Vis
km
Sea
Height
m
Swell
Dir
 
Speed
knots
Gust
knots
hPa Trend Height
m
Period
s
Dir
24/07:00pm 27.3 ESE 9 12 1014.1 - - - - - - - - -
24/06:30pm 27.4 ESE 8 12 1013.8 - - - - - - - - -
24/06:00pm 27.9 ESE 8 13 1013.5 - - - - - - - - -
24/05:30pm 28.3 ESE 9 13 1013.3 - - - - - - - - -
24/05:00pm 28.8 ESE 8 13 1013.0 - - - - - - - - -
24/04:30pm 29.3 ESE 7 12 1012.7 - - - - - - - - -
24/04:00pm 29.5 ESE 10 14 1012.5 - - - - - - - - -
24/03:30pm 30.5 ESE 9 14 1012.3 - - - - - - - - -
24/03:00pm 29.9 ESE 9 13 1012.3 - - - - - - - - -
 
Date/Time
CST
Temp

°C
Wind Pressure Rain
since 9am
mm
Weather Cloud Vis
km
Sea
Height
m
Swell
Dir
 
Speed
knots
Gust
knots
hPa Trend Height
m
Period
s
Dir
23/11:30pm 23.2 SSE 10 14 1015.1 - 0.0 - - - - - - -
23/11:00pm 23.5 SE 10 15 1015.2 - 0.0 - - - - - - -
23/10:30pm 23.6 SE 9 15 1015.2 - 0.0 - - - - - - -
23/10:00pm 23.9 SE 10 17 1015.3 - 0.0 - - - - - - -
23/09:30pm 24.2 SE 11 16 1015.3 - 0.0 - - - - - - -
23/09:00pm 24.5 SE 11 19 1015.1 - 0.0 - - - - - - -
23/08:30pm 24.6 SE 8 13 1014.9 - 0.0 - - - - - - -
23/08:00pm 25.0 SE 10 17 1014.5 - 0.0 - - - - - - -
23/07:30pm 25.3 SE 12 17 1014.4 - 0.0 - - - - - - -
23/07:00pm 25.8 SE 9 15 1014.3 - 0.0 - - - - - - -
23/06:30pm 26.1 ESE 11 15 1014.0 - 0.0 - - - - - - -
23/06:00pm 26.3 ESE 10 16 1013.6 - 0.0 - - - - - - -
23/05:30pm 27.2 ESE 10 15 1013.5 - 0.0 - - - - - - -
23/05:00pm 27.6 SE 12 19 1013.0 - 0.0 - - - - - - -
23/04:30pm 28.2 ESE 11 18 1012.8 - 0.0 - - - - - - -
23/04:00pm 28.8 ESE 11 19 1012.7 - 0.0 - - - - - - -
23/03:30pm 29.1 SE 13 19 1012.6 - 0.0 - - - - - - -
23/03:00pm 29.4 SE 12 18 1012.6 - 0.0 - - - - - - -
23/02:30pm 29.3 SE 13 21 1012.8 - 0.0 - - - - - - -
23/02:00pm 29.6 SE 11 17 1013.2 - 0.0 - - - - - - -
23/01:30pm 29.4 SE 13 21 1013.5 - 0.0 - - - - - - -
23/01:00pm 29.3 SE 13 19 1014.1 - 0.0 - - - - - - -
23/12:30pm 29.3 SE 13 22 1014.5 - 0.0 - - - - - - -
23/12:00pm 28.4 SE 13 20 1015.1 - 0.0 - - - - - - -
23/11:30am 28.6 SE 12 18 1015.5 - 0.0 - - - - - - -
23/11:00am 27.9 SE 12 19 1015.9 - 0.0 - - - - - - -
23/10:30am 27.6 SE 12 19 1016.1 - 0.0 - - - - - - -
23/10:00am 27.3 SSE 15 23 1015.7 - 0.0 - - - - - - -
23/09:52am 26.8 SSE 15 25 1015.8 - 0.0 - - - - - - -
23/09:30am 26.0 SSE 13 20 1015.9 - 0.0 - - - - - - -
23/09:00am 25.2 SSE 13 18 1016.0 - 0.0 - - - - - - -
23/08:30am 24.6 SSE 12 17 1016.0 - 0.0 - - - - - - -
23/08:00am 23.6 SSE 11 16 1015.8 - 0.0 - - - - - - -
23/07:30am 22.7 SE 10 14 1015.8 - 0.0 - - - - - - -
23/07:00am 22.1 SSE 10 13 1015.5 - 0.0 - - - - - - -
23/06:30am 21.9 SE 8 11 1015.2 - 0.0 - - - - - - -
23/06:00am 22.2 SE 9 13 1014.9 - 0.0 - - - - - - -
23/05:30am 22.5 SSE 9 12 1014.6 - 0.0 - - - - - - -
23/05:00am 23.2 SE 10 15 1014.2 - 0.0 - - - - - - -
23/04:30am 23.3 SE 11 15 1014.2 - 0.0 - - - - - - -
23/04:00am 23.4 SE 11 16 1014.1 - 0.0 - - - - - - -
23/03:30am 23.5 SE 11 16 1014.1 - 0.0 - - - - - - -
23/03:00am 23.5 SE 11 17 1014.2 - 0.0 - - - - - - -
23/02:30am 23.3 SE 11 15 1014.4 - 0.0 - - - - - - -
23/02:00am 23.2 SE 11 15 1014.6 - 0.0 - - - - - - -
23/01:30am 23.3 SE 11 17 1014.8 - 0.0 - - - - - - -
23/01:00am 23.5 SE 12 18 1015.0 - 0.0 - - - - - - -
23/12:30am 23.7 SE 12 17 1015.2 - 0.0 - - - - - - -
23/12:00am 24.1 SSE 12 17 1015.7 - 0.0 - - - - - - -
 
Date/Time
CST
Temp

°C
Wind Pressure Rain
since 9am
mm
Weather Cloud Vis
km
Sea
Height
m
Swell
Dir
 
Speed
knots
Gust
knots
hPa Trend Height
m
Period
s
Dir
22/11:30pm 24.4 SE 11 15 1016.0 - 0.0 - - - - - - -
22/11:00pm 25.1 SE 13 23 1016.0 - 0.0 - - - - - - -
22/10:30pm 25.2 SE 10 18 1016.3 - 0.0 - - - - - - -
22/10:00pm 25.2 SE 11 17 1016.5 - 0.0 - - - - - - -
22/09:30pm 25.3 SE 9 15 1016.4 - 0.0 - - - - - - -
22/09:00pm 25.5 SE 10 15 1016.3 - 0.0 - - - - - - -
22/08:30pm 25.9 SE 11 16 1016.0 - 0.0 - - - - - - -
22/08:00pm 26.1 SE 9 15 1015.8 - 0.0 - - - - - - -
22/07:30pm 26.5 SE 9 18 1015.5 - 0.0 - - - - - - -
22/07:00pm 26.6 SE 9 13 1014.9 - 0.0 - - - - - - -
22/06:30pm 27.0 SE 9 15 1014.4 - 0.0 - - - - - - -
22/06:00pm 27.5 SE 9 14 1013.9 - 0.0 - - - - - - -
22/05:30pm 28.2 SE 11 17 1013.6 - 0.0 - - - - - - -
22/05:00pm 28.8 SE 11 19 1013.1 - 0.0 - - - - - - -
22/04:30pm 29.6 ESE 11 17 1012.7 - 0.0 - - - - - - -
22/04:00pm 30.2 ESE 11 19 1012.4 - 0.0 - - - - - - -
22/03:30pm 30.2 SE 13 23 1012.3 - 0.0 - - - - - - -
22/03:00pm 30.7 ESE 12 19 1012.5 - 0.0 - - - - - - -
22/02:30pm 30.6 SE 13 22 1012.6 - 0.0 - - - - - - -
22/02:00pm 30.8 ESE 12 19 1013.0 - 0.0 - - - - - - -
22/01:30pm 30.1 SE 10 19 1013.3 - 0.0 - - - - - - -
22/01:00pm 30.2 SE 11 19 1013.9 - 0.0 - - - - - - -
22/12:30pm 29.0 SE 12 20 1014.5 - 0.0 - - - - - - -
22/12:00pm 29.5 SE 10 19 1014.7 - 0.0 - - - - - - -
22/11:30am 29.7 SE 10 15 1015.4 - 0.0 - - - - - - -
22/11:00am 28.4 SE 10 16 1015.9 - 0.0 - - - - - - -
22/10:30am 27.9 SE 10 17 1016.2 - 0.0 - - - - - - -
22/10:00am 28.0 SE 10 16 1016.5 - 0.0 - - - - - - -
22/09:30am 26.8 SE 9 14 1016.6 - 0.0 - - - - - - -
22/09:00am 26.2 SE 9 13 1016.6 - 0.0 - - - - - - -
22/08:30am 24.6 SE 9 13 1016.4 - 0.0 - - - - - - -
22/08:00am 23.7 SSE 9 12 1016.2 - 0.0 - - - - - - -
22/07:30am 23.5 SSE 9 13 1015.8 - 0.0 - - - - - - -
22/07:00am 23.2 SE 6 8 1015.5 - 0.0 - - - - - - -
22/06:30am 22.9 SE 5 7 1015.3 - 0.0 - - - - - - -
22/06:00am 23.1 SE 5 7 1015.0 - 0.0 - - - - - - -
22/05:30am 23.3 ESE 4 5 1014.8 - 0.0 - - - - - - -
22/05:00am 23.0 SE 4 5 1014.6 - 0.0 - - - - - - -
22/04:30am 23.0 SSE 5 5 1014.5 - 0.0 - - - - - - -
22/04:00am 22.9 SE 3 5 1014.4 - 0.0 - - - - - - -
22/03:30am 23.0 ESE 4 4 1014.6 - 0.0 - - - - - - -
22/03:00am 23.2 SE 4 5 1014.7 - 0.0 - - - - - - -
22/02:30am 22.9 ESE 3 4 1014.7 - 0.0 - - - - - - -
22/02:00am 23.6 ESE 3 4 1014.9 - 0.0 - - - - - - -
22/01:30am 23.2 E 3 4 1015.1 - 0.0 - - - - - - -
22/01:00am 24.6 E 4 4 1015.1 - 0.0 - - - - - - -
22/12:30am 24.6 SE 5 6 1015.2 - 0.0 - - - - - - -
22/12:00am 24.8 ESE 5 8 1015.4 - 0.0 - - - - - - -
 
Date/Time
CST
Temp

°C
Wind Pressure Rain
since 9am
mm
Weather Cloud Vis
km
Sea
Height
m
Swell
Dir
 
Speed
knots
Gust
knots
hPa Trend Height
m
Period
s
Dir
21/11:30pm 24.6 ESE 5 7 1015.8 - 0.0 - - - - - - -
21/11:00pm 24.0 ESE 4 5 1016.1 - 0.0 - - - - - - -

Other Formats:

Comma delimited format used in spreadsheet applications
http://www.bom.gov.au/fwo/IDD60701/IDD60701.95146.axf

JavaScript Object Notation format (JSON) in row-major order
http://www.bom.gov.au/fwo/IDD60701/IDD60701.95146.json